Snoqualmie River: Snoqualmie Falls station

back to: Snoqualmie river
Snoqualmie Falls station Summary - (NOAA Hydrograph: SQUW1)
flood stage: 12.88 ft
Latest reading:
Tue12/18 01:10 pm 8.92 ft 7880 cfs (steady)
Past 24hr max:
Tue12/18 01:10 pm 8.92 ft 7880 cfs
Forecasted crests: (published Tue 12/18/18 08:08 am)
Tue12/18 10:00 pm 9.15 ft 8421 cfs
Fri12/21 04:00 am 7.95 ft 5872 cfs
Sun12/23 04:00 pm 6.07 ft 2946 cfs
Mon12/24 04:00 pm 6.45 ft 3419 cfs

Snoqualmie Falls station Details

Latest Readings

Last 100 Readings:
Tue12/18 01:10 pm 8.92 ft 7880 cfs
Tue12/18 01:05 pm 8.92 ft 7880 cfs
Tue12/18 01:00 pm 8.9 ft 7835 cfs
Tue12/18 12:55 pm 8.9 ft 7835 cfs
Tue12/18 12:50 pm 8.89 ft 7812 cfs
Tue12/18 12:45 pm 8.89 ft 7812 cfs
Tue12/18 12:40 pm 8.89 ft 7812 cfs
Tue12/18 12:35 pm 8.85 ft 7723 cfs
Tue12/18 12:30 pm 8.84 ft 7700 cfs
Tue12/18 12:25 pm 8.82 ft 7656 cfs
Tue12/18 12:20 pm 8.81 ft 7634 cfs
Tue12/18 12:15 pm 8.79 ft 7589 cfs
Tue12/18 12:10 pm 8.79 ft 7589 cfs
Tue12/18 12:05 pm 8.78 ft 7567 cfs
Tue12/18 12:00 pm 8.77 ft 7545 cfs
Tue12/18 11:55 am 8.73 ft 7458 cfs
Tue12/18 11:50 am 8.73 ft 7458 cfs
Tue12/18 11:45 am 8.7 ft 7392 cfs
Tue12/18 11:40 am 8.66 ft 7305 cfs
Tue12/18 11:35 am 8.67 ft 7327 cfs
Tue12/18 11:30 am 8.64 ft 7262 cfs
Tue12/18 11:25 am 8.6 ft 7176 cfs
Tue12/18 11:20 am 8.58 ft 7134 cfs
Tue12/18 11:15 am 8.55 ft 7070 cfs
Tue12/18 11:10 am 8.53 ft 7028 cfs
Tue12/18 11:05 am 8.5 ft 6964 cfs
Tue12/18 11:00 am 8.46 ft 6881 cfs
Tue12/18 10:55 am 8.46 ft 6881 cfs
Tue12/18 10:50 am 8.44 ft 6839 cfs
Tue12/18 10:45 am 8.41 ft 6777 cfs
Tue12/18 10:40 am 8.38 ft 6715 cfs
Tue12/18 10:35 am 8.36 ft 6674 cfs
Tue12/18 10:30 am 8.32 ft 6592 cfs
Tue12/18 10:25 am 8.29 ft 6531 cfs
Tue12/18 10:20 am 8.27 ft 6491 cfs
Tue12/18 10:15 am 8.24 ft 6431 cfs
Tue12/18 10:10 am 8.19 ft 6331 cfs
Tue12/18 10:05 am 8.19 ft 6331 cfs
Tue12/18 10:00 am 8.14 ft 6232 cfs
Tue12/18 09:55 am 8.12 ft 6193 cfs
Tue12/18 09:50 am 8.09 ft 6134 cfs
Tue12/18 09:45 am 8.07 ft 6095 cfs
Tue12/18 09:40 am 8.02 ft 5998 cfs
Tue12/18 09:35 am 8.0 ft 5960 cfs
Tue12/18 09:30 am 7.97 ft 5903 cfs
Tue12/18 09:25 am 7.93 ft 5827 cfs
Tue12/18 09:20 am 7.91 ft 5789 cfs
Tue12/18 09:15 am 7.87 ft 5714 cfs
Tue12/18 09:10 am 7.82 ft 5621 cfs
Tue12/18 09:05 am 7.82 ft 5621 cfs
Tue12/18 09:00 am 7.8 ft 5584 cfs
Tue12/18 08:55 am 7.74 ft 5474 cfs
Tue12/18 08:50 am 7.7 ft 5401 cfs
Tue12/18 08:45 am 7.67 ft 5347 cfs
Tue12/18 08:40 am 7.64 ft 5293 cfs
Tue12/18 08:35 am 7.61 ft 5239 cfs
Tue12/18 08:30 am 7.58 ft 5186 cfs
Tue12/18 08:25 am 7.53 ft 5098 cfs
Tue12/18 08:20 am 7.49 ft 5029 cfs
Tue12/18 08:15 am 7.48 ft 5011 cfs
Tue12/18 08:10 am 7.44 ft 4942 cfs
Tue12/18 08:05 am 7.4 ft 4874 cfs
Tue12/18 08:00 am 7.38 ft 4840 cfs
Tue12/18 07:55 am 7.34 ft 4772 cfs
Tue12/18 07:50 am 7.33 ft 4755 cfs
Tue12/18 07:45 am 7.3 ft 4705 cfs
Tue12/18 07:40 am 7.26 ft 4638 cfs
Tue12/18 07:35 am 7.23 ft 4589 cfs
Tue12/18 07:30 am 7.2 ft 4540 cfs
Tue12/18 07:25 am 7.17 ft 4491 cfs
Tue12/18 07:20 am 7.12 ft 4410 cfs
Tue12/18 07:15 am 7.11 ft 4394 cfs
Tue12/18 07:10 am 7.08 ft 4346 cfs
Tue12/18 07:05 am 7.05 ft 4298 cfs
Tue12/18 07:00 am 7.02 ft 4251 cfs
Tue12/18 06:55 am 6.99 ft 4204 cfs
Tue12/18 06:50 am 6.96 ft 4157 cfs
Tue12/18 06:45 am 6.94 ft 4126 cfs
Tue12/18 06:40 am 6.9 ft 4065 cfs
Tue12/18 06:35 am 6.87 ft 4019 cfs
Tue12/18 06:30 am 6.86 ft 4004 cfs
Tue12/18 06:25 am 6.84 ft 3973 cfs
Tue12/18 06:20 am 6.81 ft 3928 cfs
Tue12/18 06:15 am 6.79 ft 3898 cfs
Tue12/18 06:10 am 6.77 ft 3868 cfs
Tue12/18 06:05 am 6.74 ft 3824 cfs
Tue12/18 06:00 am 6.72 ft 3794 cfs
Tue12/18 05:55 am 6.71 ft 3780 cfs
Tue12/18 05:50 am 6.68 ft 3736 cfs
Tue12/18 05:45 am 6.66 ft 3707 cfs
Tue12/18 05:40 am 6.64 ft 3678 cfs
Tue12/18 05:35 am 6.64 ft 3678 cfs
Tue12/18 05:30 am 6.62 ft 3649 cfs
Tue12/18 05:25 am 6.58 ft 3591 cfs
Tue12/18 05:20 am 6.59 ft 3606 cfs
Tue12/18 05:15 am 6.56 ft 3563 cfs
Tue12/18 05:10 am 6.55 ft 3549 cfs
Tue12/18 05:05 am 6.53 ft 3521 cfs
Tue12/18 05:00 am 6.52 ft 3506 cfs
Tue12/18 04:55 am 6.52 ft 3506 cfs

Latest Forecasts

Currently Forecasted Readings:
Tue12/18 10:00 am 7.64 ft 5298 cfs
Tue12/18 04:00 pm 8.74 ft 7488 cfs
Tue12/18 10:00 pm 9.15 ft 8421 cfs
Wed12/19 04:00 am 9.08 ft 8253 cfs
Wed12/19 10:00 am 8.76 ft 7530 cfs
Wed12/19 04:00 pm 8.27 ft 6487 cfs
Wed12/19 10:00 pm 7.74 ft 5470 cfs
Thu12/20 04:00 am 7.33 ft 4750 cfs
Thu12/20 10:00 am 7.23 ft 4584 cfs
Thu12/20 04:00 pm 7.51 ft 5065 cfs
Thu12/20 10:00 pm 7.88 ft 5723 cfs
Fri12/21 04:00 am 7.95 ft 5872 cfs
Fri12/21 10:00 am 7.72 ft 5430 cfs
Fri12/21 04:00 pm 7.37 ft 4826 cfs
Fri12/21 10:00 pm 7.05 ft 4306 cfs
Sat12/22 04:00 am 6.76 ft 3855 cfs
Sat12/22 10:00 am 6.49 ft 3464 cfs
Sat12/22 04:00 pm 6.25 ft 3164 cfs
Sat12/22 10:00 pm 6.09 ft 2969 cfs
Sun12/23 04:00 am 6.04 ft 2907 cfs
Sun12/23 10:00 am 6.06 ft 2937 cfs
Sun12/23 04:00 pm 6.07 ft 2946 cfs
Sun12/23 10:00 pm 6.05 ft 2916 cfs
Mon12/24 04:00 am 6.11 ft 2988 cfs
Mon12/24 10:00 am 6.3 ft 3230 cfs
Mon12/24 04:00 pm 6.45 ft 3419 cfs
Mon12/24 10:00 pm 6.44 ft 3397 cfs
Tue12/25 04:00 am 6.28 ft 3198 cfs
Tue12/25 10:00 am 6.06 ft 2933 cfs
Tue12/25 04:00 pm 5.87 ft 2709 cfs
Tue12/25 10:00 pm 5.71 ft 2542 cfs
Wed12/26 04:00 am 5.55 ft 2369 cfs
Wed12/26 10:00 am 5.37 ft 2187 cfs
Wed12/26 04:00 pm 5.21 ft 2033 cfs
Wed12/26 10:00 pm 5.08 ft 1908 cfs
Thu12/27 04:00 am 4.97 ft 1804 cfs
Thu12/27 10:00 am 4.87 ft 1719 cfs
Thu12/27 04:00 pm 4.79 ft 1647 cfs
Thu12/27 10:00 pm 4.71 ft 1585 cfs
Fri12/28 04:00 am 4.64 ft 1531 cfs

Snoqualmie River flood gauge data supplied by the
National Weather Service Northwest River Forecast Center.

Sign up for Floodzilla alerts.